Mayport Naval Station, Florida
Current Conditions -  °F | °C
As of 8:52 AM on Thursday 29 Jan 2015 (Local Time) from KNRB Reporting Station
Broken Clouds Broken Clouds  
Wind Chill: 49°   Ceiling: 25000
Heat Index: 49°   Visibility: 10mi
Dew Point: 43°   Wind: 3mph
Humidity: 80%   Direction: 300°WNW
Pressure: 30.35"   Gusts: NA
Location:  30.3812°N, 81.4077°W
Report Text: KNRB 291352Z 30003KT 10SM BKN250 09/06 A3035 RMK AO2 SLP276 T00940061
Loading
Personal Weather Stations






























Interactive Weather Map New forecast layout! Learn more

10-Day Weather Forecast

Advertisements
Track Severe Weather on mobile